AirNav   Air Wisconsin Up To $57,000 Bonus
 
 412 users online  

6S1 Bridger Municipal Airport
Bridger, Montana, USA

GOING TO BRIDGER?


FAA INFORMATION EFFECTIVE 25 FEBRUARY 2021

Location

FAA Identifier: 6S1
Lat/Long: 45-17-29.8100N 108-55-32.5160W
45-17.496833N 108-55.541933W
45.2916139,-108.9256989
(estimated)
Elevation: 3720 ft. / 1134 m (estimated)
Variation: 15E (1985)
Time zone: UTC -7 (UTC -6 during Daylight Saving Time)
Zip code: 59014

Airport Operations

Airport use: Open to the public
Activation date: 02/1947
Control tower: no
ARTCC: SALT LAKE CITY CENTER
FSS: GREAT FALLS FLIGHT SERVICE STATION
NOTAMs facility: GTF (NOTAM-D service available)
Attendance: UNATNDD
Wind indicator: lighted
Segmented circle: yes
Lights: ACTVT LIRL RY 16/34, PAPI RY 34 - CTAF.
Beacon: white-green (lighted land airport)
Operates sunset to sunrise.

Airport Communications

CTAF: 122.9

Nearby radio navigation aids

VOR radial/distance  VOR name  Freq  Var
BILr188/33.5BILLINGS VORTAC114.5014E

 
NDB name  Hdg/Dist  Freq  Var  ID
POWELL336/26.234411EPOY .--. --- -.--
COWLEY307/30.525711EHCY .... -.-. -.--

Airport Services

Parking: tiedowns
Airframe service: NONE
Powerplant service: NONE
Bottled oxygen: NONE
Bulk oxygen: NONE

Runway Information

Runway 16/34

Dimensions: 3400 x 42 ft. / 1036 x 13 m
Surface: asphalt, in good condition
Weight bearing capacity: 
Single wheel: 4.0
Runway edge lights: non-standard
LIRL NSTD. WEST SIDE 57 FT FROM PAVEMENT EDGE; EAST SIDE 47 FT FROM PAVEMENT EDGE. EACH THR HAS 4 LGTS TOTAL.
Runway edge markings: RY 34 DSPLCD THLD MKD BY NRS; 3280 FT AVBL FOR NGT OPR.
RUNWAY 16  RUNWAY 34
Traffic pattern: leftright
Displaced threshold: 120 ft.
RWY 16 THR RELOCATED 120 FT FOR NGT OPS ONLY NOT MARKED.
475 ft.
Markings: basic, in good conditionbasic, in good condition
Visual slope indicator: 2-light PAPI on left (3.00 degrees glide path)
Obstructions: 30 ft. tree, 262 ft. from runway, 96 ft. left of centerline, 2:1 slope to clear
RY 16 +4 FT FENCE 40 FT FM EOR, +15 FT ROAD 61 FT FM EOR, ALL XNG RY CNTRLN PERPENDICULAR.
none
RWY 34 +4 FT FENCE 96 FT RIGHT & PARALLEL TO RY; +3 FT BERM & 4 FT FENCE ON BERM 115 FT RIGHT & PARALLEL TO RY; SIGN 66 FT LEFT & 65 FT FM EOR; +60 FT POLES IN TRANS SURFACE WEST SIDE OF RY 34 THLD. RWY 34 3% UPHILL GRADE.

Airport Ownership and Management from official FAA records

Ownership: Publicly-owned
Owner: CITY OF BRIDGER/CARBON CO
PO BOX 368
BRIDGER, MT 59014
Phone 406-662-3677
Manager: MERRIL PFEIFER
88 PFEIFER RD
BRIDGER, MT 59014
Phone (406) 425-4218

Airport Operational Statistics

Aircraft based on the field: 2
Single engine airplanes: 2
    
Aircraft operations: avg 34/week *
83% local general aviation
17% transient general aviation
* for 12-month period ending 20 July 2019

Additional Remarks

DEER AND WATERFOWL ON AND INVOF ARPT.
FOR CD CTC BILLINGS APCH AT 406-255-2798

Instrument Procedures

There are no published instrument procedures at 6S1.

Some nearby airports with instrument procedures:

6S8 - Laurel Municipal Airport (26 nm N)
KPOY - Powell Municipal Airport (26 nm S)
U68 - North Big Horn County Airport (31 nm SE)
KBIL - Billings Logan International Airport (35 nm NE)
KCOD - Yellowstone Regional Airport (46 nm S)
 
Loc | Ops | Rwys | IFR | FBO | Links
Com | Nav | Svcs | Stats | Notes
Area around 6S1 (Bridger Municipal Airport)
 
Road maps at: MapQuest Bing Google
 
Aerial photo
WARNING: Photo may not be current or correct
Aerial photo of 6S1 (Bridger Municipal Airport)
Photo by Richard E. Grimm

Do you have a better or more recent aerial photo of Bridger Municipal Airport that you would like to share? If so, please send us your photo.

 
Sectional chart

 
Airport distance calculator
Flying to Bridger Municipal Airport? Find the distance to fly.

From to 6S1

Sunrise and sunset
Times for 08-Mar-2021
 Local
(UTC-7)
 Zulu
(UTC)
Morning civil twilight06:1313:13
Sunrise06:4213:42
Sunset18:1101:11
Evening civil twilight18:4001:40

Current date and time
Zulu (UTC)  08-Mar-2021 11:41:43
Local (UTC-7)  08-Mar-2021 04:41:43
 
METAR
K6S8 
26nm N 
081040Z AUTO 30004KT 10SM M01/M03 A3001 RMK A01 Laurel
KPOY 
26nm S 
081035Z AUTO 26004KT 10SM CLR 01/M07 A2998 RMK AO2
KU68 
31nm SE 
081035Z AUTO 28005KT 10SM CLR 00/00 A2999 RMK AO2
KBIL 
34nm NE 
081053Z 28003KT 10SM CLR 01/M04 A3000 RMK AO2 SLP168 T00061039
KCOD 
47nm S 
080956Z AUTO 19004KT 10SM CLR 00/M07 A3001 RMK AO2 SLP170 T00001072 FZRANO
TAF
NOTAMs
Click for the latest NOTAMs
NOTAMs are issued by the DoD/FAA and will open in a separate window not controlled by AirNav.

 

 
 

Would you like to see your business listed on this page?

 If your business provides an interesting product or service to pilots, flight crews, aircraft, or users of the Bridger Municipal Airport, you should consider listing it here.  To start the listing process, click on the button below
 
Add a business
 

Other Pages about Bridger Municipal Airport

Update a link
 
Copyright © AirNav, LLC. All rights reserved. Privacy Policy  Contact